Terminal Aerodrome Forecast
Issued by NWS

Home | Current Version | Previous Version | Text Only | Print | Product List | Glossary On
Versions: 1 2 3 4 5 6 7 8 9 10 11 12 13 14 15 16
000
FTUS43 KFGF 200825 AAA
TAFTVF
TAF AMD
KTVF 200825Z 2008/2106 17010KT 3SM BR OVC003
      TEMPO 2008/2011 3/4SM BR
     FM201200 14009KT 1/2SM FG OVC003
     FM201500 14007KT 3/4SM BR BKN003
     FM201800 15007KT P6SM OVC003=

USA.gov is the U.S. government's official web portal to all federal, state and local government web resources and services.